sensor_id;sensor_type;location;lat;lon;timestamp;P1;durP1;ratioP1;P2;durP2;ratioP2
46589;SDS011;32313;48.722;9.362;2024-03-08T00:01:01;41.03;;;32.13;;
46589;SDS011;32313;48.722;9.362;2024-03-08T00:03:26;38.73;;;31.40;;
46589;SDS011;32313;48.722;9.362;2024-03-08T00:05:54;42.97;;;34.30;;
46589;SDS011;32313;48.722;9.362;2024-03-08T00:08:20;40.10;;;33.27;;
46589;SDS011;32313;48.722;9.362;2024-03-08T00:10:45;41.63;;;32.80;;
46589;SDS011;32313;48.722;9.362;2024-03-08T00:13:11;40.03;;;33.50;;
46589;SDS011;32313;48.722;9.362;2024-03-08T00:15:37;38.73;;;32.07;;
46589;SDS011;32313;48.722;9.362;2024-03-08T00:18:02;42.57;;;35.20;;
46589;SDS011;32313;48.722;9.362;2024-03-08T00:20:28;45.57;;;35.50;;
46589;SDS011;32313;48.722;9.362;2024-03-08T00:22:54;41.57;;;34.03;;
46589;SDS011;32313;48.722;9.362;2024-03-08T00:25:22;39.90;;;32.43;;
46589;SDS011;32313;48.722;9.362;2024-03-08T00:27:49;43.57;;;35.13;;
46589;SDS011;32313;48.722;9.362;2024-03-08T00:30:14;40.87;;;32.53;;
46589;SDS011;32313;48.722;9.362;2024-03-08T00:32:40;42.40;;;34.97;;
46589;SDS011;32313;48.722;9.362;2024-03-08T00:35:06;40.37;;;33.07;;
46589;SDS011;32313;48.722;9.362;2024-03-08T00:37:32;38.03;;;33.57;;
46589;SDS011;32313;48.722;9.362;2024-03-08T00:39:59;38.13;;;31.50;;
46589;SDS011;32313;48.722;9.362;2024-03-08T00:42:25;37.90;;;32.37;;
46589;SDS011;32313;48.722;9.362;2024-03-08T00:44:51;38.23;;;31.43;;
46589;SDS011;32313;48.722;9.362;2024-03-08T00:47:17;37.83;;;31.50;;
46589;SDS011;32313;48.722;9.362;2024-03-08T00:49:43;37.80;;;31.07;;
46589;SDS011;32313;48.722;9.362;2024-03-08T00:52:08;35.83;;;31.77;;
46589;SDS011;32313;48.722;9.362;2024-03-08T00:54:35;41.40;;;33.50;;
46589;SDS011;32313;48.722;9.362;2024-03-08T00:57:03;35.73;;;29.70;;
46589;SDS011;32313;48.722;9.362;2024-03-08T00:59:37;37.03;;;31.90;;
46589;SDS011;32313;48.722;9.362;2024-03-08T01:02:03;38.33;;;32.17;;
46589;SDS011;32313;48.722;9.362;2024-03-08T01:04:29;43.07;;;34.57;;
46589;SDS011;32313;48.722;9.362;2024-03-08T01:06:55;38.90;;;32.03;;
46589;SDS011;32313;48.722;9.362;2024-03-08T01:09:24;42.67;;;32.20;;
46589;SDS011;32313;48.722;9.362;2024-03-08T01:11:52;38.00;;;32.93;;
46589;SDS011;32313;48.722;9.362;2024-03-08T01:14:22;41.90;;;33.30;;
46589;SDS011;32313;48.722;9.362;2024-03-08T01:16:59;38.33;;;32.47;;
46589;SDS011;32313;48.722;9.362;2024-03-08T01:19:24;37.90;;;32.30;;
46589;SDS011;32313;48.722;9.362;2024-03-08T01:21:50;40.43;;;32.50;;
46589;SDS011;32313;48.722;9.362;2024-03-08T01:24:16;37.73;;;32.37;;
46589;SDS011;32313;48.722;9.362;2024-03-08T01:26:42;40.50;;;34.17;;
46589;SDS011;32313;48.722;9.362;2024-03-08T01:29:08;41.60;;;34.43;;
46589;SDS011;32313;48.722;9.362;2024-03-08T01:31:33;40.17;;;31.30;;
46589;SDS011;32313;48.722;9.362;2024-03-08T01:34:01;40.03;;;32.17;;
46589;SDS011;32313;48.722;9.362;2024-03-08T01:36:27;37.80;;;33.70;;
46589;SDS011;32313;48.722;9.362;2024-03-08T01:38:53;41.27;;;34.03;;
46589;SDS011;32313;48.722;9.362;2024-03-08T01:41:18;40.53;;;32.60;;
46589;SDS011;32313;48.722;9.362;2024-03-08T01:43:44;40.03;;;33.07;;
46589;SDS011;32313;48.722;9.362;2024-03-08T01:46:10;35.70;;;30.77;;
46589;SDS011;32313;48.722;9.362;2024-03-08T01:48:40;41.23;;;32.57;;
46589;SDS011;32313;48.722;9.362;2024-03-08T01:51:06;36.40;;;31.47;;
46589;SDS011;32313;48.722;9.362;2024-03-08T01:53:33;38.97;;;33.53;;
46589;SDS011;32313;48.722;9.362;2024-03-08T01:56:00;38.77;;;32.63;;
46589;SDS011;32313;48.722;9.362;2024-03-08T01:58:27;40.47;;;32.00;;
46589;SDS011;32313;48.722;9.362;2024-03-08T02:00:54;38.57;;;32.43;;
46589;SDS011;32313;48.722;9.362;2024-03-08T02:03:21;39.73;;;32.70;;
46589;SDS011;32313;48.722;9.362;2024-03-08T02:05:47;35.40;;;30.53;;
46589;SDS011;32313;48.722;9.362;2024-03-08T02:08:14;39.27;;;32.30;;
46589;SDS011;32313;48.722;9.362;2024-03-08T02:10:41;36.40;;;30.23;;
46589;SDS011;32313;48.722;9.362;2024-03-08T02:13:08;37.17;;;31.90;;
46589;SDS011;32313;48.722;9.362;2024-03-08T02:18:25;36.50;;;29.73;;
46589;SDS011;32313;48.722;9.362;2024-03-08T02:20:56;33.93;;;29.53;;
46589;SDS011;32313;48.722;9.362;2024-03-08T02:23:27;34.50;;;28.50;;
46589;SDS011;32313;48.722;9.362;2024-03-08T02:25:54;35.33;;;29.60;;
46589;SDS011;32313;48.722;9.362;2024-03-08T02:28:21;32.90;;;27.83;;
46589;SDS011;32313;48.722;9.362;2024-03-08T02:30:47;33.60;;;30.00;;
46589;SDS011;32313;48.722;9.362;2024-03-08T02:33:19;33.33;;;28.43;;
46589;SDS011;32313;48.722;9.362;2024-03-08T02:35:45;33.27;;;29.63;;
46589;SDS011;32313;48.722;9.362;2024-03-08T02:38:15;33.80;;;29.30;;
46589;SDS011;32313;48.722;9.362;2024-03-08T02:40:42;32.23;;;28.83;;
46589;SDS011;32313;48.722;9.362;2024-03-08T02:43:11;33.57;;;28.70;;
46589;SDS011;32313;48.722;9.362;2024-03-08T02:45:37;31.97;;;28.50;;
46589;SDS011;32313;48.722;9.362;2024-03-08T02:48:03;34.70;;;30.63;;
46589;SDS011;32313;48.722;9.362;2024-03-08T02:50:31;37.47;;;31.90;;
46589;SDS011;32313;48.722;9.362;2024-03-08T02:52:58;34.70;;;29.93;;
46589;SDS011;32313;48.722;9.362;2024-03-08T02:55:24;38.00;;;31.57;;
46589;SDS011;32313;48.722;9.362;2024-03-08T02:57:51;38.73;;;30.27;;
46589;SDS011;32313;48.722;9.362;2024-03-08T03:00:17;35.37;;;31.00;;
46589;SDS011;32313;48.722;9.362;2024-03-08T03:02:44;38.83;;;33.53;;
46589;SDS011;32313;48.722;9.362;2024-03-08T03:05:11;36.03;;;30.40;;
46589;SDS011;32313;48.722;9.362;2024-03-08T03:07:37;33.17;;;29.17;;
46589;SDS011;32313;48.722;9.362;2024-03-08T03:10:02;35.33;;;30.43;;
46589;SDS011;32313;48.722;9.362;2024-03-08T03:12:28;37.77;;;31.10;;
46589;SDS011;32313;48.722;9.362;2024-03-08T03:14:55;36.20;;;29.83;;
46589;SDS011;32313;48.722;9.362;2024-03-08T03:17:24;35.33;;;31.47;;
46589;SDS011;32313;48.722;9.362;2024-03-08T03:19:50;35.07;;;29.40;;
46589;SDS011;32313;48.722;9.362;2024-03-08T03:22:19;36.93;;;30.83;;
46589;SDS011;32313;48.722;9.362;2024-03-08T03:24:45;36.00;;;30.87;;
46589;SDS011;32313;48.722;9.362;2024-03-08T03:27:12;32.70;;;28.90;;
46589;SDS011;32313;48.722;9.362;2024-03-08T03:29:38;37.07;;;32.13;;
46589;SDS011;32313;48.722;9.362;2024-03-08T03:32:14;35.87;;;30.87;;
46589;SDS011;32313;48.722;9.362;2024-03-08T03:34:40;35.93;;;29.73;;
46589;SDS011;32313;48.722;9.362;2024-03-08T03:37:07;36.27;;;30.40;;
46589;SDS011;32313;48.722;9.362;2024-03-08T03:39:39;35.43;;;30.27;;
46589;SDS011;32313;48.722;9.362;2024-03-08T03:42:15;34.90;;;30.27;;
46589;SDS011;32313;48.722;9.362;2024-03-08T03:44:41;35.93;;;30.60;;
46589;SDS011;32313;48.722;9.362;2024-03-08T03:47:11;39.40;;;30.67;;
46589;SDS011;32313;48.722;9.362;2024-03-08T03:49:36;37.23;;;31.27;;
46589;SDS011;32313;48.722;9.362;2024-03-08T03:52:02;37.80;;;32.40;;
46589;SDS011;32313;48.722;9.362;2024-03-08T03:54:29;35.90;;;31.00;;
46589;SDS011;32313;48.722;9.362;2024-03-08T03:56:55;38.73;;;31.97;;
46589;SDS011;32313;48.722;9.362;2024-03-08T03:59:21;36.13;;;30.53;;
46589;SDS011;32313;48.722;9.362;2024-03-08T04:01:47;36.37;;;31.17;;
46589;SDS011;32313;48.722;9.362;2024-03-08T04:04:14;37.87;;;31.50;;
46589;SDS011;32313;48.722;9.362;2024-03-08T04:06:40;38.20;;;31.90;;
46589;SDS011;32313;48.722;9.362;2024-03-08T04:09:07;35.70;;;30.97;;
46589;SDS011;32313;48.722;9.362;2024-03-08T04:11:32;38.30;;;32.20;;
46589;SDS011;32313;48.722;9.362;2024-03-08T04:13:58;40.73;;;34.07;;
46589;SDS011;32313;48.722;9.362;2024-03-08T04:16:24;39.50;;;32.43;;
46589;SDS011;32313;48.722;9.362;2024-03-08T04:18:51;38.33;;;31.50;;
46589;SDS011;32313;48.722;9.362;2024-03-08T04:21:17;37.63;;;32.80;;
46589;SDS011;32313;48.722;9.362;2024-03-08T04:23:44;38.33;;;33.63;;
46589;SDS011;32313;48.722;9.362;2024-03-08T04:26:10;39.27;;;32.77;;
46589;SDS011;32313;48.722;9.362;2024-03-08T04:28:36;36.70;;;31.03;;
46589;SDS011;32313;48.722;9.362;2024-03-08T04:31:03;42.70;;;32.33;;
46589;SDS011;32313;48.722;9.362;2024-03-08T04:33:29;38.30;;;32.40;;
46589;SDS011;32313;48.722;9.362;2024-03-08T04:35:55;40.43;;;32.53;;
46589;SDS011;32313;48.722;9.362;2024-03-08T04:38:21;37.03;;;32.40;;
46589;SDS011;32313;48.722;9.362;2024-03-08T04:40:46;37.03;;;30.77;;
46589;SDS011;32313;48.722;9.362;2024-03-08T04:43:12;38.50;;;33.00;;
46589;SDS011;32313;48.722;9.362;2024-03-08T04:45:39;34.83;;;31.10;;
46589;SDS011;32313;48.722;9.362;2024-03-08T04:48:06;37.53;;;32.13;;
46589;SDS011;32313;48.722;9.362;2024-03-08T04:50:33;40.63;;;34.10;;
46589;SDS011;32313;48.722;9.362;2024-03-08T04:52:59;37.20;;;31.33;;
46589;SDS011;32313;48.722;9.362;2024-03-08T04:55:25;40.73;;;33.90;;
46589;SDS011;32313;48.722;9.362;2024-03-08T04:57:50;40.53;;;33.03;;
46589;SDS011;32313;48.722;9.362;2024-03-08T05:00:16;42.10;;;35.13;;
46589;SDS011;32313;48.722;9.362;2024-03-08T05:02:42;38.50;;;32.87;;
46589;SDS011;32313;48.722;9.362;2024-03-08T05:05:08;37.33;;;32.30;;
46589;SDS011;32313;48.722;9.362;2024-03-08T05:07:37;39.30;;;31.27;;
46589;SDS011;32313;48.722;9.362;2024-03-08T05:10:04;38.27;;;33.17;;
46589;SDS011;32313;48.722;9.362;2024-03-08T05:12:31;40.97;;;34.00;;
46589;SDS011;32313;48.722;9.362;2024-03-08T05:14:58;46.37;;;35.80;;
46589;SDS011;32313;48.722;9.362;2024-03-08T05:17:23;39.10;;;33.47;;
46589;SDS011;32313;48.722;9.362;2024-03-08T05:19:49;42.77;;;34.20;;
46589;SDS011;32313;48.722;9.362;2024-03-08T05:22:16;42.57;;;34.57;;
46589;SDS011;32313;48.722;9.362;2024-03-08T05:24:42;43.10;;;34.20;;
46589;SDS011;32313;48.722;9.362;2024-03-08T05:27:08;38.90;;;33.73;;
46589;SDS011;32313;48.722;9.362;2024-03-08T05:29:34;38.00;;;33.73;;
46589;SDS011;32313;48.722;9.362;2024-03-08T05:32:00;46.80;;;34.63;;
46589;SDS011;32313;48.722;9.362;2024-03-08T05:34:26;42.43;;;34.37;;
46589;SDS011;32313;48.722;9.362;2024-03-08T05:36:53;44.07;;;33.53;;
46589;SDS011;32313;48.722;9.362;2024-03-08T05:39:19;44.10;;;36.27;;
46589;SDS011;32313;48.722;9.362;2024-03-08T05:41:45;43.73;;;36.03;;
46589;SDS011;32313;48.722;9.362;2024-03-08T05:44:11;44.07;;;35.93;;
46589;SDS011;32313;48.722;9.362;2024-03-08T05:46:38;43.10;;;35.73;;
46589;SDS011;32313;48.722;9.362;2024-03-08T05:49:05;43.23;;;34.90;;
46589;SDS011;32313;48.722;9.362;2024-03-08T05:51:32;46.53;;;36.23;;
46589;SDS011;32313;48.722;9.362;2024-03-08T05:54:01;50.87;;;38.73;;
46589;SDS011;32313;48.722;9.362;2024-03-08T05:56:35;44.80;;;36.57;;
46589;SDS011;32313;48.722;9.362;2024-03-08T05:59:01;49.07;;;38.80;;
46589;SDS011;32313;48.722;9.362;2024-03-08T06:01:28;45.90;;;35.90;;
46589;SDS011;32313;48.722;9.362;2024-03-08T06:03:54;48.77;;;39.03;;
46589;SDS011;32313;48.722;9.362;2024-03-08T06:06:21;47.73;;;38.53;;
46589;SDS011;32313;48.722;9.362;2024-03-08T06:08:48;46.70;;;36.77;;
46589;SDS011;32313;48.722;9.362;2024-03-08T06:11:17;50.07;;;37.00;;
46589;SDS011;32313;48.722;9.362;2024-03-08T06:13:44;50.23;;;39.27;;
46589;SDS011;32313;48.722;9.362;2024-03-08T06:16:10;47.17;;;36.43;;
46589;SDS011;32313;48.722;9.362;2024-03-08T06:18:36;45.20;;;36.33;;
46589;SDS011;32313;48.722;9.362;2024-03-08T06:21:03;45.90;;;37.43;;
46589;SDS011;32313;48.722;9.362;2024-03-08T06:23:31;45.60;;;37.10;;
46589;SDS011;32313;48.722;9.362;2024-03-08T06:25:57;50.13;;;39.13;;
46589;SDS011;32313;48.722;9.362;2024-03-08T06:28:23;48.83;;;40.27;;
46589;SDS011;32313;48.722;9.362;2024-03-08T06:30:48;48.20;;;37.03;;
46589;SDS011;32313;48.722;9.362;2024-03-08T06:33:16;44.67;;;36.43;;
46589;SDS011;32313;48.722;9.362;2024-03-08T06:35:43;45.67;;;38.60;;
46589;SDS011;32313;48.722;9.362;2024-03-08T06:38:09;45.37;;;36.97;;
46589;SDS011;32313;48.722;9.362;2024-03-08T06:40:35;43.13;;;36.37;;
46589;SDS011;32313;48.722;9.362;2024-03-08T06:43:00;43.93;;;36.10;;
46589;SDS011;32313;48.722;9.362;2024-03-08T06:45:26;47.83;;;36.60;;
46589;SDS011;32313;48.722;9.362;2024-03-08T06:47:53;46.53;;;37.27;;
46589;SDS011;32313;48.722;9.362;2024-03-08T06:50:20;43.93;;;35.83;;
46589;SDS011;32313;48.722;9.362;2024-03-08T06:52:45;42.63;;;35.07;;
46589;SDS011;32313;48.722;9.362;2024-03-08T06:55:15;42.13;;;34.80;;
46589;SDS011;32313;48.722;9.362;2024-03-08T06:57:42;39.93;;;34.03;;
46589;SDS011;32313;48.722;9.362;2024-03-08T07:00:08;40.00;;;33.13;;
46589;SDS011;32313;48.722;9.362;2024-03-08T07:02:36;40.90;;;33.33;;
46589;SDS011;32313;48.722;9.362;2024-03-08T07:05:03;40.80;;;33.67;;
46589;SDS011;32313;48.722;9.362;2024-03-08T07:07:29;39.80;;;32.23;;
46589;SDS011;32313;48.722;9.362;2024-03-08T07:09:57;48.90;;;32.43;;
46589;SDS011;32313;48.722;9.362;2024-03-08T07:12:24;38.23;;;31.33;;
46589;SDS011;32313;48.722;9.362;2024-03-08T07:14:50;37.73;;;31.03;;
46589;SDS011;32313;48.722;9.362;2024-03-08T07:17:15;38.93;;;33.40;;
46589;SDS011;32313;48.722;9.362;2024-03-08T07:19:41;36.77;;;30.50;;
46589;SDS011;32313;48.722;9.362;2024-03-08T07:22:07;36.60;;;29.27;;
46589;SDS011;32313;48.722;9.362;2024-03-08T07:24:36;35.40;;;30.23;;
46589;SDS011;32313;48.722;9.362;2024-03-08T07:27:03;33.70;;;30.10;;
46589;SDS011;32313;48.722;9.362;2024-03-08T07:29:30;32.73;;;29.13;;
46589;SDS011;32313;48.722;9.362;2024-03-08T07:31:56;35.37;;;30.23;;
46589;SDS011;32313;48.722;9.362;2024-03-08T07:34:27;33.50;;;29.73;;
46589;SDS011;32313;48.722;9.362;2024-03-08T07:36:57;34.37;;;30.37;;
46589;SDS011;32313;48.722;9.362;2024-03-08T07:39:24;32.20;;;28.77;;
46589;SDS011;32313;48.722;9.362;2024-03-08T07:41:50;38.97;;;30.20;;
46589;SDS011;32313;48.722;9.362;2024-03-08T07:44:18;34.30;;;29.67;;
46589;SDS011;32313;48.722;9.362;2024-03-08T07:46:44;33.50;;;28.50;;
46589;SDS011;32313;48.722;9.362;2024-03-08T07:49:09;34.70;;;29.73;;
46589;SDS011;32313;48.722;9.362;2024-03-08T07:51:37;32.63;;;27.63;;
46589;SDS011;32313;48.722;9.362;2024-03-08T07:54:03;31.87;;;27.30;;
46589;SDS011;32313;48.722;9.362;2024-03-08T07:56:29;29.87;;;26.67;;
46589;SDS011;32313;48.722;9.362;2024-03-08T07:58:55;30.93;;;27.50;;
46589;SDS011;32313;48.722;9.362;2024-03-08T08:01:21;34.50;;;29.73;;
46589;SDS011;32313;48.722;9.362;2024-03-08T08:03:47;29.57;;;25.60;;
46589;SDS011;32313;48.722;9.362;2024-03-08T08:06:16;32.10;;;28.60;;
46589;SDS011;32313;48.722;9.362;2024-03-08T08:08:42;33.83;;;27.97;;
46589;SDS011;32313;48.722;9.362;2024-03-08T08:11:08;32.03;;;27.93;;
46589;SDS011;32313;48.722;9.362;2024-03-08T08:13:34;31.27;;;26.00;;
46589;SDS011;32313;48.722;9.362;2024-03-08T08:16:01;36.13;;;28.53;;
46589;SDS011;32313;48.722;9.362;2024-03-08T08:18:28;30.90;;;27.57;;
46589;SDS011;32313;48.722;9.362;2024-03-08T08:20:55;31.93;;;26.67;;
46589;SDS011;32313;48.722;9.362;2024-03-08T08:23:21;30.87;;;25.80;;
46589;SDS011;32313;48.722;9.362;2024-03-08T08:25:47;28.43;;;25.27;;
46589;SDS011;32313;48.722;9.362;2024-03-08T08:28:16;29.87;;;26.70;;
46589;SDS011;32313;48.722;9.362;2024-03-08T08:30:45;30.80;;;26.80;;
46589;SDS011;32313;48.722;9.362;2024-03-08T08:33:11;30.50;;;27.20;;
46589;SDS011;32313;48.722;9.362;2024-03-08T08:35:37;30.57;;;26.23;;
46589;SDS011;32313;48.722;9.362;2024-03-08T08:38:04;28.93;;;25.80;;
46589;SDS011;32313;48.722;9.362;2024-03-08T08:40:30;29.33;;;26.13;;
46589;SDS011;32313;48.722;9.362;2024-03-08T08:42:57;29.30;;;26.10;;
46589;SDS011;32313;48.722;9.362;2024-03-08T08:45:23;28.17;;;24.80;;
46589;SDS011;32313;48.722;9.362;2024-03-08T08:47:49;30.93;;;27.03;;
46589;SDS011;32313;48.722;9.362;2024-03-08T08:50:15;29.40;;;26.07;;
46589;SDS011;32313;48.722;9.362;2024-03-08T08:52:41;30.57;;;24.43;;
46589;SDS011;32313;48.722;9.362;2024-03-08T08:55:08;28.57;;;25.47;;
46589;SDS011;32313;48.722;9.362;2024-03-08T08:57:48;30.30;;;25.30;;
46589;SDS011;32313;48.722;9.362;2024-03-08T09:00:15;28.03;;;24.83;;
46589;SDS011;32313;48.722;9.362;2024-03-08T09:02:41;26.93;;;22.83;;
46589;SDS011;32313;48.722;9.362;2024-03-08T09:05:07;26.53;;;23.77;;
46589;SDS011;32313;48.722;9.362;2024-03-08T09:07:33;28.17;;;24.20;;
46589;SDS011;32313;48.722;9.362;2024-03-08T09:09:59;29.97;;;26.70;;
46589;SDS011;32313;48.722;9.362;2024-03-08T09:12:25;29.23;;;24.97;;
46589;SDS011;32313;48.722;9.362;2024-03-08T09:14:51;27.40;;;24.43;;
46589;SDS011;32313;48.722;9.362;2024-03-08T09:17:17;26.63;;;23.47;;
46589;SDS011;32313;48.722;9.362;2024-03-08T09:19:48;26.20;;;23.03;;
46589;SDS011;32313;48.722;9.362;2024-03-08T09:22:15;26.67;;;23.70;;
46589;SDS011;32313;48.722;9.362;2024-03-08T09:24:40;26.73;;;23.03;;
46589;SDS011;32313;48.722;9.362;2024-03-08T09:27:08;26.33;;;23.37;;
46589;SDS011;32313;48.722;9.362;2024-03-08T09:29:35;27.47;;;24.17;;
46589;SDS011;32313;48.722;9.362;2024-03-08T09:32:00;25.43;;;22.67;;
46589;SDS011;32313;48.722;9.362;2024-03-08T09:34:26;24.87;;;22.20;;
46589;SDS011;32313;48.722;9.362;2024-03-08T09:36:52;27.43;;;23.77;;
46589;SDS011;32313;48.722;9.362;2024-03-08T09:39:18;28.50;;;22.77;;
46589;SDS011;32313;48.722;9.362;2024-03-08T09:41:46;26.83;;;22.40;;
46589;SDS011;32313;48.722;9.362;2024-03-08T09:44:15;26.43;;;23.57;;
46589;SDS011;32313;48.722;9.362;2024-03-08T09:46:41;26.50;;;21.93;;
46589;SDS011;32313;48.722;9.362;2024-03-08T09:49:07;26.60;;;22.77;;
46589;SDS011;32313;48.722;9.362;2024-03-08T09:51:34;27.83;;;22.63;;
46589;SDS011;32313;48.722;9.362;2024-03-08T09:54:01;25.07;;;22.37;;
46589;SDS011;32313;48.722;9.362;2024-03-08T09:56:31;25.60;;;22.97;;
46589;SDS011;32313;48.722;9.362;2024-03-08T09:59:00;27.80;;;22.43;;
46589;SDS011;32313;48.722;9.362;2024-03-08T10:01:45;24.77;;;22.10;;
46589;SDS011;32313;48.722;9.362;2024-03-08T10:04:11;24.17;;;21.57;;
46589;SDS011;32313;48.722;9.362;2024-03-08T10:06:39;22.83;;;20.27;;
46589;SDS011;32313;48.722;9.362;2024-03-08T10:09:05;24.73;;;21.23;;
46589;SDS011;32313;48.722;9.362;2024-03-08T10:11:33;24.60;;;21.83;;
46589;SDS011;32313;48.722;9.362;2024-03-08T10:14:00;26.27;;;20.63;;
46589;SDS011;32313;48.722;9.362;2024-03-08T10:16:29;23.40;;;20.57;;
46589;SDS011;32313;48.722;9.362;2024-03-08T10:18:58;22.87;;;20.20;;
46589;SDS011;32313;48.722;9.362;2024-03-08T10:21:25;22.43;;;20.10;;
46589;SDS011;32313;48.722;9.362;2024-03-08T10:23:52;24.13;;;21.37;;
46589;SDS011;32313;48.722;9.362;2024-03-08T10:26:18;23.60;;;20.77;;
46589;SDS011;32313;48.722;9.362;2024-03-08T10:28:50;23.97;;;21.37;;
46589;SDS011;32313;48.722;9.362;2024-03-08T10:31:18;23.77;;;21.27;;
46589;SDS011;32313;48.722;9.362;2024-03-08T10:33:45;25.40;;;22.03;;
46589;SDS011;32313;48.722;9.362;2024-03-08T10:36:11;23.67;;;20.90;;
46589;SDS011;32313;48.722;9.362;2024-03-08T10:38:39;26.00;;;23.03;;
46589;SDS011;32313;48.722;9.362;2024-03-08T10:41:06;21.97;;;19.67;;
46589;SDS011;32313;48.722;9.362;2024-03-08T10:49:27;22.73;;;19.93;;
46589;SDS011;32313;48.722;9.362;2024-03-08T10:52:00;24.17;;;21.63;;
46589;SDS011;32313;48.722;9.362;2024-03-08T10:54:28;24.77;;;21.07;;
46589;SDS011;32313;48.722;9.362;2024-03-08T10:56:56;24.33;;;21.60;;
46589;SDS011;32313;48.722;9.362;2024-03-08T10:59:23;22.63;;;18.80;;
46589;SDS011;32313;48.722;9.362;2024-03-08T11:01:52;24.43;;;20.07;;
46589;SDS011;32313;48.722;9.362;2024-03-08T11:04:18;21.50;;;19.10;;
46589;SDS011;32313;48.722;9.362;2024-03-08T11:06:47;22.93;;;19.83;;
46589;SDS011;32313;48.722;9.362;2024-03-08T11:09:27;22.80;;;20.37;;
46589;SDS011;32313;48.722;9.362;2024-03-08T11:14:49;23.50;;;19.90;;
46589;SDS011;32313;48.722;9.362;2024-03-08T11:17:16;23.53;;;21.03;;
46589;SDS011;32313;48.722;9.362;2024-03-08T11:19:52;23.27;;;20.77;;
46589;SDS011;32313;48.722;9.362;2024-03-08T11:22:47;21.43;;;19.23;;
46589;SDS011;32313;48.722;9.362;2024-03-08T11:28:12;22.10;;;19.70;;
46589;SDS011;32313;48.722;9.362;2024-03-08T11:30:45;24.50;;;20.93;;
46589;SDS011;32313;48.722;9.362;2024-03-08T11:33:13;19.27;;;17.37;;
46589;SDS011;32313;48.722;9.362;2024-03-08T11:35:41;20.57;;;18.13;;
46589;SDS011;32313;48.722;9.362;2024-03-08T11:38:11;22.13;;;19.40;;
46589;SDS011;32313;48.722;9.362;2024-03-08T11:40:38;20.67;;;18.03;;
46589;SDS011;32313;48.722;9.362;2024-03-08T11:43:05;21.97;;;19.67;;
46589;SDS011;32313;48.722;9.362;2024-03-08T11:45:33;21.40;;;19.03;;
46589;SDS011;32313;48.722;9.362;2024-03-08T11:48:02;19.17;;;17.10;;
46589;SDS011;32313;48.722;9.362;2024-03-08T11:50:29;22.60;;;18.70;;
46589;SDS011;32313;48.722;9.362;2024-03-08T11:53:00;21.03;;;18.70;;
46589;SDS011;32313;48.722;9.362;2024-03-08T11:55:27;21.77;;;19.47;;
46589;SDS011;32313;48.722;9.362;2024-03-08T11:58:04;22.67;;;19.43;;
46589;SDS011;32313;48.722;9.362;2024-03-08T12:00:33;22.30;;;19.10;;
46589;SDS011;32313;48.722;9.362;2024-03-08T12:03:07;21.73;;;18.90;;
46589;SDS011;32313;48.722;9.362;2024-03-08T12:05:35;19.27;;;17.23;;
46589;SDS011;32313;48.722;9.362;2024-03-08T12:08:04;25.07;;;20.53;;
46589;SDS011;32313;48.722;9.362;2024-03-08T12:10:32;19.70;;;17.60;;
46589;SDS011;32313;48.722;9.362;2024-03-08T12:13:00;20.13;;;17.93;;
46589;SDS011;32313;48.722;9.362;2024-03-08T12:15:25;21.83;;;19.07;;
46589;SDS011;32313;48.722;9.362;2024-03-08T12:17:53;19.70;;;17.60;;
46589;SDS011;32313;48.722;9.362;2024-03-08T12:20:21;19.40;;;17.37;;
46589;SDS011;32313;48.722;9.362;2024-03-08T12:22:54;19.97;;;17.33;;
46589;SDS011;32313;48.722;9.362;2024-03-08T12:25:22;18.87;;;16.83;;
46589;SDS011;32313;48.722;9.362;2024-03-08T12:27:52;19.00;;;16.40;;
46589;SDS011;32313;48.722;9.362;2024-03-08T12:30:22;21.10;;;18.90;;
46589;SDS011;32313;48.722;9.362;2024-03-08T12:32:59;21.97;;;19.57;;
46589;SDS011;32313;48.722;9.362;2024-03-08T12:35:29;19.13;;;17.13;;
46589;SDS011;32313;48.722;9.362;2024-03-08T12:37:56;19.93;;;17.83;;
46589;SDS011;32313;48.722;9.362;2024-03-08T12:40:29;18.33;;;16.50;;
46589;SDS011;32313;48.722;9.362;2024-03-08T12:43:00;21.13;;;18.27;;
46589;SDS011;32313;48.722;9.362;2024-03-08T12:45:26;20.37;;;18.13;;
46589;SDS011;32313;48.722;9.362;2024-03-08T12:47:53;20.67;;;18.53;;
46589;SDS011;32313;48.722;9.362;2024-03-08T12:50:20;20.60;;;18.50;;
46589;SDS011;32313;48.722;9.362;2024-03-08T12:52:46;21.13;;;18.93;;
46589;SDS011;32313;48.722;9.362;2024-03-08T12:55:13;21.60;;;19.00;;
46589;SDS011;32313;48.722;9.362;2024-03-08T12:57:43;21.63;;;19.33;;
46589;SDS011;32313;48.722;9.362;2024-03-08T13:00:09;21.40;;;19.00;;
46589;SDS011;32313;48.722;9.362;2024-03-08T13:02:41;22.50;;;20.10;;
46589;SDS011;32313;48.722;9.362;2024-03-08T13:05:07;19.93;;;17.83;;
46589;SDS011;32313;48.722;9.362;2024-03-08T13:07:34;21.07;;;18.77;;
46589;SDS011;32313;48.722;9.362;2024-03-08T13:10:00;19.93;;;17.60;;
46589;SDS011;32313;48.722;9.362;2024-03-08T13:12:26;21.33;;;19.03;;
46589;SDS011;32313;48.722;9.362;2024-03-08T13:14:52;20.80;;;18.10;;
46589;SDS011;32313;48.722;9.362;2024-03-08T13:17:21;20.20;;;18.10;;
46589;SDS011;32313;48.722;9.362;2024-03-08T13:19:47;18.83;;;16.73;;
46589;SDS011;32313;48.722;9.362;2024-03-08T13:22:13;20.23;;;18.03;;
46589;SDS011;32313;48.722;9.362;2024-03-08T13:24:42;22.03;;;19.63;;
46589;SDS011;32313;48.722;9.362;2024-03-08T13:27:10;20.53;;;17.70;;
46589;SDS011;32313;48.722;9.362;2024-03-08T13:29:45;21.67;;;18.40;;
46589;SDS011;32313;48.722;9.362;2024-03-08T13:32:12;22.20;;;19.33;;
46589;SDS011;32313;48.722;9.362;2024-03-08T13:34:42;21.10;;;18.87;;
46589;SDS011;32313;48.722;9.362;2024-03-08T13:37:08;20.83;;;17.80;;
46589;SDS011;32313;48.722;9.362;2024-03-08T13:39:35;20.53;;;18.13;;
46589;SDS011;32313;48.722;9.362;2024-03-08T13:42:12;19.53;;;16.87;;
46589;SDS011;32313;48.722;9.362;2024-03-08T13:44:43;18.13;;;16.23;;
46589;SDS011;32313;48.722;9.362;2024-03-08T13:47:09;19.63;;;17.53;;
46589;SDS011;32313;48.722;9.362;2024-03-08T13:49:37;20.23;;;18.07;;
46589;SDS011;32313;48.722;9.362;2024-03-08T13:52:03;17.57;;;15.70;;
46589;SDS011;32313;48.722;9.362;2024-03-08T13:54:29;21.20;;;18.10;;
46589;SDS011;32313;48.722;9.362;2024-03-08T13:56:57;18.67;;;16.70;;
46589;SDS011;32313;48.722;9.362;2024-03-08T13:59:23;17.90;;;16.07;;
46589;SDS011;32313;48.722;9.362;2024-03-08T14:01:50;19.73;;;16.63;;
46589;SDS011;32313;48.722;9.362;2024-03-08T14:04:16;20.73;;;18.53;;
46589;SDS011;32313;48.722;9.362;2024-03-08T14:06:42;17.90;;;15.63;;
46589;SDS011;32313;48.722;9.362;2024-03-08T14:09:11;21.53;;;19.23;;
46589;SDS011;32313;48.722;9.362;2024-03-08T14:11:43;19.37;;;17.40;;
46589;SDS011;32313;48.722;9.362;2024-03-08T14:14:12;21.23;;;18.57;;
46589;SDS011;32313;48.722;9.362;2024-03-08T14:16:38;19.00;;;16.67;;
46589;SDS011;32313;48.722;9.362;2024-03-08T14:19:04;21.50;;;18.60;;
46589;SDS011;32313;48.722;9.362;2024-03-08T14:21:33;23.43;;;19.63;;
46589;SDS011;32313;48.722;9.362;2024-03-08T14:23:59;21.57;;;18.33;;
46589;SDS011;32313;48.722;9.362;2024-03-08T14:26:26;21.83;;;19.53;;
46589;SDS011;32313;48.722;9.362;2024-03-08T14:28:53;20.47;;;18.37;;
46589;SDS011;32313;48.722;9.362;2024-03-08T14:31:22;21.27;;;18.97;;
46589;SDS011;32313;48.722;9.362;2024-03-08T14:33:53;21.10;;;18.40;;
46589;SDS011;32313;48.722;9.362;2024-03-08T14:36:20;19.93;;;17.30;;